»·PEaware :: N973SE KSBP-KOXR

N973SE :: KSBP-KOXR

FLIGHT INFORMATION

Flight Status: Arrived
Operator: Privately registered:
United States
More flights under this callsign
Pilot: Stig E. (4778)
Aircraft: CESSNA 310
(C310)
More flights by this aircraft type
Origin: KSBP San Luis Co Regl
United States
Destination: KOXR Oxnard
United States
More flights between these airports :: More routes between these airports
Route: MISHI FLW GMN V299 FIM NELLY
File this flight plan on PilotEdge
Remarks: +CW /
Altitude:
(Current/Filed)
11,500ft
Speed:
(Current/Filed)
170kts
Departed: 06-Feb-19 09:05 PM
Arrived: 06-Feb-19 10:01 PM
Distance/Time
Traveled:
95nm/0:56
Distance/Time
To Go:
Arrived

Flight Plot

Page will automatically refresh every two minutes.

Flight plan parsing failed; only flown route is shown


Map Options




Map Legend


Flown Route
Filed Route
Departure Airport
Arrival Airport
Navaid (VOR, NDB)
Fix

Horizontal Profiles

Position Reports

Time Latitude Longitude Heading Altitude Ground
Speed
06-Feb-19 20:28 35.238241 -120.639983 308 215ft 0kts
06-Feb-19 20:29 35.238241 -120.639983 308 215ft 0kts
06-Feb-19 20:30 35.238241 -120.639983 308 215ft 0kts
06-Feb-19 20:31 35.238241 -120.639983 308 215ft 0kts
06-Feb-19 20:32 35.238241 -120.639983 308 215ft 0kts
06-Feb-19 20:33 35.238241 -120.639983 308 215ft 0kts
06-Feb-19 20:34 35.238241 -120.639983 308 215ft 0kts
06-Feb-19 20:35 35.238241 -120.639983 308 215ft 0kts
06-Feb-19 20:36 35.238241 -120.639983 308 215ft 0kts
06-Feb-19 20:37 35.238241 -120.639983 308 215ft 0kts
06-Feb-19 20:38 35.238241 -120.639983 308 215ft 0kts
06-Feb-19 20:39 35.238241 -120.639983 308 215ft 0kts
06-Feb-19 20:40 35.238241 -120.639983 308 215ft 0kts
06-Feb-19 20:41 35.238241 -120.639983 308 215ft 0kts
06-Feb-19 20:42 35.238241 -120.639983 308 215ft 0kts
06-Feb-19 20:43 35.238241 -120.639983 308 215ft 0kts
06-Feb-19 20:44 35.238241 -120.639983 308 215ft 0kts
06-Feb-19 20:45 35.238241 -120.639983 308 215ft 0kts
06-Feb-19 20:46 35.238241 -120.639983 308 215ft 0kts
06-Feb-19 20:47 35.238241 -120.639983 308 215ft 0kts
06-Feb-19 20:48 35.238241 -120.639983 308 215ft 0kts
06-Feb-19 20:49 35.238241 -120.639983 308 215ft 0kts
06-Feb-19 20:50 35.238241 -120.639983 308 216ft 0kts
06-Feb-19 20:51 35.238241 -120.639983 308 216ft 0kts
06-Feb-19 20:52 35.238241 -120.639983 308 216ft 0kts
06-Feb-19 20:53 35.238241 -120.639983 308 216ft 0kts
06-Feb-19 20:54 35.238241 -120.639983 308 216ft 0kts
06-Feb-19 20:55 35.238241 -120.639983 308 216ft 0kts
06-Feb-19 20:56 35.238241 -120.639983 308 216ft 0kts
06-Feb-19 20:57 35.238318 -120.640102 308 215ft 0kts
06-Feb-19 20:58 35.237609 -120.639467 123 216ft 11kts
06-Feb-19 20:59 35.235245 -120.635411 123 215ft 13kts
06-Feb-19 21:00 35.233514 -120.632371 126 215ft 8kts
06-Feb-19 21:01 35.233106 -120.632210 239 216ft 0kts
06-Feb-19 21:02 35.233106 -120.632210 239 216ft 0kts
06-Feb-19 21:03 35.232987 -120.632462 240 216ft 5kts
06-Feb-19 21:04 35.242677 -120.650318 303 573ft 129kts
06-Feb-19 21:05 35.230912 -120.685339 163 1626ft 166kts
06-Feb-19 21:06 35.203204 -120.641748 122 2639ft 165kts
06-Feb-19 21:07 35.178287 -120.593904 122 3645ft 165kts
06-Feb-19 21:08 35.159603 -120.542399 112 4649ft 166kts
06-Feb-19 21:09 35.142464 -120.489392 111 5654ft 168kts
06-Feb-19 21:10 35.132779 -120.433778 95 6656ft 168kts
06-Feb-19 21:11 35.128740 -120.376775 94 7658ft 168kts
06-Feb-19 21:12 35.124875 -120.319686 94 8661ft 168kts
06-Feb-19 21:13 35.120963 -120.262222 94 9664ft 170kts
06-Feb-19 21:14 35.116989 -120.204265 94 10668ft 171kts
06-Feb-19 21:15 35.112919 -120.145406 94 11493ft 183kts
06-Feb-19 21:16 35.108240 -120.078335 94 11501ft 206kts
06-Feb-19 21:17 35.103335 -120.007526 94 11500ft 210kts
06-Feb-19 21:18 35.098313 -119.936063 94 11500ft 211kts
06-Feb-19 21:19 35.092352 -119.864745 107 11497ft 211kts
06-Feb-19 21:20 35.073984 -119.797455 108 11499ft 206kts
06-Feb-19 21:21 35.055468 -119.731678 108 11499ft 203kts
06-Feb-19 21:22 35.036966 -119.666438 108 11499ft 202kts
06-Feb-19 21:23 35.018443 -119.601324 108 11500ft 202kts
06-Feb-19 21:24 34.999894 -119.536279 108 11500ft 202kts
06-Feb-19 21:25 34.981299 -119.471224 108 11500ft 202kts
06-Feb-19 21:26 34.962684 -119.406251 108 11500ft 202kts
06-Feb-19 21:27 34.944016 -119.341244 109 11500ft 202kts
06-Feb-19 21:28 34.925281 -119.276170 109 11500ft 202kts
06-Feb-19 21:29 34.906569 -119.211311 109 11500ft 202kts
06-Feb-19 21:30 34.887726 -119.146143 109 11500ft 202kts
06-Feb-19 21:31 34.868916 -119.081242 109 11499ft 202kts
06-Feb-19 21:32 34.850081 -119.016403 109 11500ft 202kts
06-Feb-19 21:33 34.841993 -118.988607 109 11500ft 202kts
06-Feb-19 21:34 34.841993 -118.988607 109 11500ft 202kts
06-Feb-19 21:35 34.841993 -118.988607 109 11500ft 202kts
06-Feb-19 21:36 34.841993 -118.988607 109 11500ft 202kts
06-Feb-19 21:37 34.841993 -118.988607 109 11500ft 202kts
06-Feb-19 21:38 34.839966 -118.981647 109 11500ft 202kts
06-Feb-19 21:39 34.821067 -118.916818 109 11500ft 202kts
06-Feb-19 21:40 34.797525 -118.856767 161 11502ft 200kts
06-Feb-19 21:42 34.747101 -118.862127 184 11331ft 177kts
06-Feb-19 21:43 34.699829 -118.865690 182 10817ft 165kts
06-Feb-19 21:44 34.653847 -118.868091 182 10209ft 167kts
06-Feb-19 21:45 34.611811 -118.870049 182 9585ft 170kts
06-Feb-19 21:46 34.565685 -118.872071 181 8901ft 169kts
06-Feb-19 21:47 34.518771 -118.874144 182 8201ft 168kts
06-Feb-19 21:48 34.471910 -118.876224 182 7498ft 167kts
06-Feb-19 21:49 34.425571 -118.878291 182 6798ft 166kts
06-Feb-19 21:50 34.379381 -118.880342 182 6095ft 165kts
06-Feb-19 21:51 34.337134 -118.896306 212 5400ft 163kts
06-Feb-19 21:52 34.298713 -118.926101 212 4696ft 163kts
06-Feb-19 21:53 34.260611 -118.955633 212 3994ft 162kts
06-Feb-19 21:54 34.223036 -118.984641 212 3360ft 150kts
06-Feb-19 21:55 34.200504 -119.016102 264 3196ft 117kts
06-Feb-19 21:56 34.199371 -119.052899 269 2861ft 113kts
06-Feb-19 21:57 34.199498 -119.091683 270 2266ft 116kts
06-Feb-19 21:57 34.199756 -119.124376 270 1702ft 119kts
06-Feb-19 21:59 34.200126 -119.167813 270 668ft 109kts
06-Feb-19 22:00 34.200735 -119.202284 270 43ft 72kts
06-Feb-19 22:01 34.200064 -119.211181 170 36ft 0kts
06-Feb-19 22:01 34.199838 -119.210334 90 37ft 11kts
06-Feb-19 22:03 34.199803 -119.204284 90 41ft 16kts
06-Feb-19 22:04 34.199161 -119.198911 131 45ft 15kts
06-Feb-19 22:04 34.198709 -119.198193 88 45ft 0kts

Navigation Log

Ident Type
Flight plan parsing failed, navigation log unavailable